Stations météo

réclame
Mon MeteoGroup
Tarvisio, Italie (16040): Température de l'air & dewpoint: 17.04.2018 04:00:00 - 23.04.2018 04:00:00 (CEST)Tarvisio, Italie (16040): Vitesse du vent: 17.04.2018 04:00:00 - 23.04.2018 04:00:00 (CEST)Tarvisio, Italie (16040): Direction du vent: 17.04.2018 04:00:00 - 23.04.2018 04:00:00 (CEST)Tarvisio, Italie (16040): visibility: 17.04.2018 04:00:00 - 23.04.2018 04:00:00 (CEST)
Date & Time tt [°C] td [°C] ff [km/h] ff [knt] dd vv [km]
23.04.2018 04:00:00 - - - - - -
23.04.2018 03:00:00 - - - - - -
23.04.2018 02:00:00 - - - - - -
23.04.2018 01:00:00 - - - - - -
23.04.2018 00:00:00 - - - - - -
22.04.2018 23:00:00 - - - - - -
22.04.2018 22:00:00 - - - - - -
22.04.2018 21:00:00 - - - - - -
22.04.2018 20:00:00 20,0 11,8 5 3 WSW 15
22.04.2018 19:00:00 22,0 12,0 8 4 SW 10
22.04.2018 18:00:00 23,0 12,0 9 5 SSW 10
22.04.2018 17:00:00 23,8 11,8 9 5 W 15
22.04.2018 16:00:00 24,0 11,0 5 3 WNW 10
22.04.2018 15:00:00 24,0 11,0 13 7 S 10
22.04.2018 14:00:00 23,0 10,8 9 5 SSE 15
22.04.2018 13:00:00 23,0 12,0 2 1 S 10
22.04.2018 12:00:00 22,0 12,0 8 4 SSW 10
22.04.2018 11:00:00 19,4 11,9 4 2 SSE 15
22.04.2018 10:00:00 17,0 11,0 2 1 SSE 10
22.04.2018 09:00:00 13,0 10,0 0 0 N 10
22.04.2018 08:00:00 10,4 9,5 0 0 N 15
22.04.2018 07:00:00 - - - - - -
22.04.2018 06:00:00 - - - - - -
22.04.2018 05:00:00 - - - - - -
22.04.2018 04:00:00 - - - - - -
22.04.2018 03:00:00 - - - - - -
22.04.2018 02:00:00 - - - - - -
22.04.2018 01:00:00 - - - - - -
22.04.2018 00:00:00 - - - - - -
21.04.2018 23:00:00 - - - - - -
21.04.2018 22:00:00 - - - - - -
21.04.2018 21:00:00 - - - - - -
21.04.2018 20:00:00 21,0 10,2 9 5 S 15
21.04.2018 19:00:00 23,0 10,0 8 4 SW 10
21.04.2018 18:00:00 24,0 10,0 9 5 S 10
21.04.2018 17:00:00 24,2 8,2 4 2 S 15
21.04.2018 16:00:00 24,0 9,0 5 3 NE 10
21.04.2018 15:00:00 24,0 8,0 5 3 SW 10
21.04.2018 14:00:00 23,2 8,9 5 3 SE 15
21.04.2018 13:00:00 22,0 10,0 4 2 SE 10
21.04.2018 12:00:00 21,0 10,0 5 3 SSE 10
21.04.2018 11:00:00 18,8 9,3 5 3 SSE 15
21.04.2018 10:00:00 15,0 9,0 4 2 S 10
21.04.2018 09:00:00 12,0 10,0 2 1 ESE 10
21.04.2018 08:00:00 8,2 7,3 0 0 N 15
21.04.2018 07:00:00 - - - - - -
21.04.2018 06:00:00 - - - - - -
21.04.2018 05:00:00 - - - - - -
21.04.2018 04:00:00 - - - - - -
21.04.2018 03:00:00 - - - - - -
21.04.2018 02:00:00 - - - - - -
21.04.2018 01:00:00 - - - - - -
21.04.2018 00:00:00 - - - - - -
20.04.2018 23:00:00 - - - - - -
20.04.2018 22:00:00 - - - - - -
20.04.2018 21:00:00 - - - - - -
20.04.2018 20:00:00 17,6 7,6 0 0 N 15
20.04.2018 19:00:00 22,0 6,0 5 3 ENE 10
20.04.2018 18:00:00 23,0 6,0 5 3 E 10
20.04.2018 17:00:00 23,0 5,9 9 5 E 15
20.04.2018 16:00:00 22,0 4,0 11 6 E 10
20.04.2018 15:00:00 22,0 4,0 11 6 E 10
20.04.2018 14:00:00 22,0 6,7 11 6 ESE 15
20.04.2018 13:00:00 21,0 8,0 15 8 E 10
20.04.2018 12:00:00 20,0 9,0 8 4 W 10
20.04.2018 11:00:00 18,4 9,5 9 5 E 15
20.04.2018 10:00:00 14,0 9,0 5 3 N 10
20.04.2018 09:00:00 10,0 7,0 0 0 N 10
20.04.2018 08:00:00 7,4 4,5 0 0 N 15
20.04.2018 07:00:00 - - - - - -
20.04.2018 06:00:00 - - - - - -
20.04.2018 05:00:00 - - - - - -
20.04.2018 04:00:00 - - - - - -
20.04.2018 03:00:00 - - - - - -
20.04.2018 02:00:00 - - - - - -
20.04.2018 01:00:00 - - - - - -
20.04.2018 00:00:00 - - - - - -
19.04.2018 23:00:00 - - - - - -
19.04.2018 22:00:00 - - - - - -
19.04.2018 21:00:00 - - - - - -
19.04.2018 20:00:00 16,6 7,0 0 0 N 15
19.04.2018 19:00:00 20,0 5,0 4 2 ENE 10
19.04.2018 18:00:00 21,0 4,0 4 2 ENE 10
19.04.2018 17:00:00 21,2 4,3 8 4 E 15
19.04.2018 16:00:00 21,0 5,0 11 6 E 10
19.04.2018 15:00:00 21,0 5,0 15 8 E 10
19.04.2018 14:00:00 20,0 4,9 8 4 N 15
19.04.2018 13:00:00 19,0 4,0 11 6 E 10
19.04.2018 12:00:00 19,0 5,0 13 7 E 10
19.04.2018 11:00:00 16,4 7,9 8 4 SSE 15
19.04.2018 10:00:00 14,0 7,0 5 3 ESE 10
19.04.2018 09:00:00 10,0 6,0 2 1 SE 10
19.04.2018 08:00:00 7,0 6,0 0 0 N 15
19.04.2018 07:00:00 - - - - - -
19.04.2018 06:00:00 - - - - - -
19.04.2018 05:00:00 - - - - - -
19.04.2018 04:00:00 - - - - - -
19.04.2018 03:00:00 - - - - - -
19.04.2018 02:00:00 - - - - - -
19.04.2018 01:00:00 - - - - - -
19.04.2018 00:00:00 - - - - - -
18.04.2018 23:00:00 - - - - - -
18.04.2018 22:00:00 - - - - - -
18.04.2018 21:00:00 - - - - - -
18.04.2018 20:00:00 16,2 5,8 2 1 NE 15
18.04.2018 19:00:00 19,0 4,0 4 2 W 10
18.04.2018 18:00:00 19,0 4,0 8 4 ENE 10
18.04.2018 17:00:00 19,8 3,5 8 4 E 15
18.04.2018 16:00:00 20,0 3,0 11 6 E 10
18.04.2018 15:00:00 20,0 2,0 11 6 E 10
18.04.2018 14:00:00 19,0 3,6 9 5 E 15
18.04.2018 13:00:00 18,0 4,0 9 5 ESE 10
18.04.2018 12:00:00 17,0 5,0 8 4 E 10
18.04.2018 11:00:00 15,4 5,3 8 4 E 15
18.04.2018 10:00:00 11,0 7,0 5 3 SSE 10
18.04.2018 09:00:00 9,0 6,0 2 1 SSE 10
18.04.2018 08:00:00 6,0 4,8 0 0 N 15
18.04.2018 07:00:00 - - - - - -
18.04.2018 06:00:00 - - - - - -
18.04.2018 05:00:00 - - - - - -
18.04.2018 04:00:00 - - - - - -
18.04.2018 03:00:00 - - - - - -
18.04.2018 02:00:00 - - - - - -
18.04.2018 01:00:00 - - - - - -
18.04.2018 00:00:00 - - - - - -
17.04.2018 23:00:00 - - - - - -
17.04.2018 22:00:00 - - - - - -
17.04.2018 21:00:00 - - - - - -
17.04.2018 20:00:00 13,8 10,4 2 1 E 15
17.04.2018 19:00:00 15,0 10,0 0 0 N 10
17.04.2018 18:00:00 16,0 8,0 2 1 ENE 10
17.04.2018 17:00:00 15,8 7,3 2 1 NE 15
17.04.2018 16:00:00 17,0 7,0 5 3 E 10
17.04.2018 15:00:00 15,0 8,0 2 1 SE 10
17.04.2018 14:00:00 14,0 10,0 2 1 SSE 15
17.04.2018 13:00:00 13,0 10,0 2 1 SE 10
17.04.2018 12:00:00 - - - - - -
17.04.2018 11:00:00 11,8 9,7 2 1 SSE 15
17.04.2018 10:00:00 11,0 9,0 2 1 SSE 10
17.04.2018 09:00:00 10,0 8,0 2 1 E 10
17.04.2018 08:00:00 8,6 7,1 0 0 N 0,2
17.04.2018 07:00:00 - - - - - -
17.04.2018 06:00:00 - - - - - -
17.04.2018 05:00:00 - - - - - -
17.04.2018 04:00:00 - - - - - -

tt = Température de l'air
td = dewpoint
ff = Vitesse du vent
dd = Direction du vent
vv = visibility

stations d'obs. à proximité